GMTT/TNG METAR and TAF weather

Enter ICAO airport designator
Station Type Date Time Source
GMTT METAR 2018/06/25 17:00 UTC NOAA

GMTT 251700Z 27007KT 230V300 9999 SCT016 SCT020 BKN083 22/15 Q1018 NOSIG


Station Type Date Time Source
GMTT Decoded METAR 2018/06/25 17:00 UTC NOAA

Tanger Aerodrome , Morocco (GMTT) 35-44N 005-54W 21M
Jun 25, 2018 - 01:00 PM EDT / 2018.06.25 1700 UTC
Wind: from the W (270 degrees) at 8 MPH (7 KT) (direction variable):0
Visibility: greater than 7 mile(s):0
Sky conditions: mostly cloudy
Temperature: 71 F (22 C)
Dew Point: 59 F (15 C)
Relative Humidity: 64%
Pressure (altimeter): 30.06 in. Hg (1018 hPa)
ob: GMTT 251700Z 27007KT 230V300 9999 SCT016 SCT020 BKN083 22/15 Q1018 NOSIG
cycle: 17

Station Type Date Time Source
GMTT TAF 2018/06/25 12:18 UTC NOAA

TAF GMTT 251100Z 2512/2618 28008KT 8000 SCT016 BKN020


Example: see airport list